createdAt,value
2018-01-07T00:01:26.023Z,19.60
2018-01-07T00:03:53.566Z,28.20
2018-01-07T00:06:21.056Z,28.40
2018-01-07T00:08:48.567Z,28.60
2018-01-07T00:11:16.824Z,29.37
2018-01-07T00:13:45.214Z,30.17
2018-01-07T00:16:12.758Z,31.00
2018-01-07T00:18:40.276Z,30.30
2018-01-07T00:21:07.808Z,27.73
2018-01-07T00:23:35.386Z,25.00
2018-01-07T00:26:03.857Z,30.60
2018-01-07T00:28:43.917Z,24.63
2018-01-07T00:31:11.460Z,24.77
2018-01-07T00:33:38.958Z,24.40
2018-01-07T00:36:07.232Z,21.47
2018-01-07T00:38:35.508Z,23.13
2018-01-07T00:41:03.045Z,25.97
2018-01-07T00:43:30.565Z,26.83
2018-01-07T00:45:58.045Z,27.97
2018-01-07T00:48:25.517Z,30.80
2018-01-07T00:50:53.038Z,37.23
2018-01-07T00:53:21.311Z,33.70
2018-01-07T00:55:50.283Z,29.40
2018-01-07T00:58:17.749Z,27.10
2018-01-07T01:00:45.258Z,28.70
2018-01-07T01:03:12.749Z,31.43
2018-01-07T01:05:40.228Z,30.53
2018-01-07T01:08:07.682Z,29.50
2018-01-07T01:10:35.157Z,31.27
2018-01-07T01:13:02.623Z,29.47
2018-01-07T01:15:30.204Z,30.43
2018-01-07T01:17:58.456Z,31.10
2018-01-07T01:20:25.916Z,32.03
2018-01-07T01:22:53.385Z,35.10
2018-01-07T01:25:20.847Z,35.93
2018-01-07T01:27:48.318Z,36.60
2018-01-07T01:30:16.557Z,32.70
2018-01-07T01:32:44.429Z,29.77
2018-01-07T01:35:11.914Z,30.33
2018-01-07T01:37:39.401Z,34.27
2018-01-07T01:40:06.964Z,30.17
2018-01-07T01:42:34.419Z,34.53
2018-01-07T01:45:01.877Z,32.60
2018-01-07T01:47:29.353Z,30.77
2018-01-07T01:49:56.827Z,36.47
2018-01-07T01:52:25.061Z,39.73
2018-01-07T01:54:52.525Z,38.13
2018-01-07T01:57:20.032Z,36.00
2018-01-07T01:59:47.490Z,39.13
2018-01-07T02:02:14.961Z,34.73
2018-01-07T02:04:42.414Z,38.37
2018-01-07T02:07:09.877Z,37.70
2018-01-07T02:09:38.102Z,37.57
2018-01-07T02:12:05.561Z,35.20
2018-01-07T02:14:33.017Z,37.23
2018-01-07T02:17:00.483Z,39.30
2018-01-07T02:19:28.728Z,38.83
2018-01-07T02:21:56.205Z,42.57
2018-01-07T02:24:24.431Z,39.50
2018-01-07T02:26:51.886Z,41.57
2018-01-07T02:29:19.340Z,42.07
2018-01-07T02:31:46.816Z,45.30
2018-01-07T02:34:14.275Z,41.43
2018-01-07T02:36:41.779Z,43.40
2018-01-07T02:39:09.228Z,40.93
2018-01-07T02:41:36.697Z,40.97
2018-01-07T02:44:04.154Z,43.57
2018-01-07T02:46:31.639Z,42.37
2018-01-07T02:48:59.845Z,43.97
2018-01-07T02:51:27.316Z,38.83
2018-01-07T02:53:54.769Z,42.93
2018-01-07T02:56:22.256Z,40.27
2018-01-07T02:58:49.749Z,38.50
2018-01-07T03:01:18.004Z,37.10
2018-01-07T03:03:45.464Z,37.63
2018-01-07T03:06:12.942Z,38.43
2018-01-07T03:08:41.182Z,36.33
2018-01-07T03:11:08.648Z,37.70
2018-01-07T03:13:36.129Z,37.20
2018-01-07T03:16:03.589Z,36.93
2018-01-07T03:18:31.062Z,39.17
2018-01-07T03:20:58.516Z,36.07
2018-01-07T03:23:26.042Z,36.90
2018-01-07T03:25:53.499Z,34.37
2018-01-07T03:28:20.971Z,38.10
2018-01-07T03:30:48.447Z,32.37
2018-01-07T03:33:15.915Z,31.03
2018-01-07T03:35:43.364Z,28.57
2018-01-07T03:38:10.835Z,28.93
2018-01-07T03:40:38.297Z,30.20
2018-01-07T03:43:05.786Z,28.13
2018-01-07T03:45:33.261Z,32.83
2018-01-07T03:48:00.738Z,30.63
2018-01-07T03:50:28.969Z,32.13
2018-01-07T03:52:56.433Z,30.83
2018-01-07T03:55:23.892Z,32.20
2018-01-07T03:57:51.358Z,29.37
2018-01-07T04:00:18.843Z,30.13
2018-01-07T04:02:46.339Z,29.37
2018-01-07T04:05:13.815Z,32.67
2018-01-07T04:07:41.307Z,33.30
2018-01-07T04:10:08.771Z,34.37
2018-01-07T04:12:36.254Z,33.43
2018-01-07T04:15:03.714Z,31.10
2018-01-07T04:17:31.169Z,34.37
2018-01-07T04:19:58.642Z,32.00
2018-01-07T04:22:26.118Z,32.00
2018-01-07T04:24:53.578Z,35.17
2018-01-07T04:27:21.054Z,33.90
2018-01-07T04:29:49.281Z,32.33
2018-01-07T04:32:16.746Z,31.20
2018-01-07T04:34:44.258Z,32.93
2018-01-07T04:37:11.752Z,32.77
2018-01-07T04:39:39.263Z,34.10
2018-01-07T04:42:06.754Z,34.70
2018-01-07T04:44:34.985Z,37.03
2018-01-07T04:47:02.451Z,38.93
2018-01-07T04:49:40.765Z,38.03
2018-01-07T04:52:08.228Z,37.10
2018-01-07T04:54:35.814Z,35.03
2018-01-07T04:57:06.849Z,36.37
2018-01-07T04:59:34.333Z,35.43
2018-01-07T05:04:57.871Z,34.87
2018-01-07T05:07:26.706Z,32.60
2018-01-07T05:09:59.089Z,31.07
2018-01-07T05:12:28.432Z,30.93
2018-01-07T05:14:56.775Z,29.97
2018-01-07T05:17:32.816Z,31.90
2018-01-07T05:20:00.523Z,30.57
2018-01-07T05:22:28.014Z,28.37
2018-01-07T05:25:12.832Z,28.30
2018-01-07T05:27:59.901Z,28.30
2018-01-07T05:30:47.013Z,26.17
2018-01-07T05:33:16.911Z,28.33
2018-01-07T05:35:44.782Z,30.13
2018-01-07T05:38:12.244Z,30.40
2018-01-07T05:40:39.786Z,31.70
2018-01-07T05:43:07.268Z,30.87
2018-01-07T05:45:34.762Z,33.93
2018-01-07T05:48:02.239Z,33.20
2018-01-07T05:50:30.698Z,34.20
2018-01-07T05:52:59.076Z,32.37
2018-01-07T05:55:27.310Z,31.27
2018-01-07T05:57:54.927Z,32.27
2018-01-07T06:00:22.543Z,30.90
2018-01-07T06:02:50.731Z,29.20
2018-01-07T06:05:19.869Z,27.73
2018-01-07T06:07:49.124Z,27.57
2018-01-07T06:10:16.914Z,26.50
2018-01-07T06:12:46.088Z,25.83
2018-01-07T06:15:17.751Z,23.10
2018-01-07T06:17:45.230Z,23.47
2018-01-07T06:20:13.365Z,21.33
2018-01-07T06:22:40.830Z,21.53
2018-01-07T06:25:09.094Z,21.30
2018-01-07T06:45:04.542Z,23.13
2018-01-07T06:47:33.760Z,21.10
2018-01-07T06:50:02.107Z,23.57
2018-01-07T06:52:32.016Z,21.77
2018-01-07T06:55:02.937Z,22.40
2018-01-07T06:57:30.858Z,22.27
2018-01-07T06:59:58.388Z,22.57
2018-01-07T07:02:27.165Z,21.47
2018-01-07T07:04:55.658Z,19.80
2018-01-07T07:07:24.963Z,20.30
2018-01-07T07:09:53.405Z,19.53
2018-01-07T07:12:21.092Z,20.60
2018-01-07T07:15:04.464Z,23.20
2018-01-07T07:17:33.085Z,20.63
2018-01-07T07:20:01.024Z,20.47
2018-01-07T07:22:28.932Z,20.20
2018-01-07T07:24:59.975Z,21.30
2018-01-07T07:27:27.832Z,21.07
2018-01-07T07:29:55.814Z,21.73
2018-01-07T07:32:25.863Z,22.50
2018-01-07T07:34:55.355Z,22.17
2018-01-07T07:37:24.184Z,23.43
2018-01-07T07:39:52.064Z,23.47
2018-01-07T07:42:21.275Z,25.73
2018-01-07T08:10:57.246Z,25.40
2018-01-07T08:13:25.544Z,25.43
2018-01-07T08:15:54.426Z,24.03
2018-01-07T08:18:25.062Z,24.17
2018-01-07T08:20:53.562Z,23.57
2018-01-07T08:23:27.702Z,22.47
2018-01-07T08:25:56.391Z,23.37
2018-01-07T08:28:24.504Z,24.17
2018-01-07T08:30:53.148Z,22.93
2018-01-07T08:33:27.103Z,23.90
2018-01-07T08:35:58.164Z,22.30
2018-01-07T08:38:29.014Z,23.87
2018-01-07T08:40:59.053Z,24.80
2018-01-07T08:43:33.769Z,23.93
2018-01-07T08:46:06.348Z,25.07
2018-01-07T08:48:41.164Z,23.97
2018-01-07T08:51:09.531Z,21.33
2018-01-07T10:43:35.543Z,18.23
2018-01-07T10:46:13.080Z,18.87
2018-01-07T10:48:49.938Z,18.27
2018-01-07T11:00:02.456Z,16.67
2018-01-07T11:02:34.626Z,16.67
2018-01-07T11:05:07.646Z,15.40
2018-01-07T11:10:34.524Z,16.40
2018-01-07T11:13:02.210Z,17.27
2018-01-07T11:15:40.304Z,16.33
2018-01-07T11:18:08.060Z,16.90
2018-01-07T11:23:24.052Z,17.80
2018-01-07T11:25:54.234Z,19.00
2018-01-07T11:28:22.066Z,18.97
2018-01-07T11:30:49.577Z,19.07
2018-01-07T11:33:18.014Z,19.17
2018-01-07T11:35:45.587Z,20.43
2018-01-07T11:38:19.886Z,20.03
2018-01-07T12:53:10.195Z,15.50
2018-01-07T12:55:49.035Z,15.60
2018-01-07T12:58:19.924Z,15.10
2018-01-07T15:01:57.465Z,11.17
2018-01-07T15:04:37.775Z,10.40
2018-01-07T15:07:06.175Z,14.40
2018-01-07T15:09:37.974Z,11.93
2018-01-07T15:15:11.228Z,11.67
2018-01-07T15:18:16.251Z,11.37
2018-01-07T15:21:16.601Z,9.90
2018-01-07T15:23:46.630Z,10.47
2018-01-07T15:34:47.094Z,11.60
2018-01-07T16:29:32.420Z,12.43
2018-01-07T17:16:34.652Z,12.37
2018-01-07T17:36:24.753Z,14.53
2018-01-07T17:38:52.375Z,14.00
2018-01-07T17:41:20.016Z,13.50
2018-01-07T17:58:10.498Z,14.33
2018-01-07T18:00:39.844Z,13.13
2018-01-07T18:12:12.839Z,13.50
2018-01-07T18:15:01.919Z,13.03
2018-01-07T18:51:42.798Z,12.93
2018-01-07T18:54:11.420Z,13.53
2018-01-07T18:56:39.830Z,13.27
2018-01-07T19:45:08.863Z,12.30
2018-01-07T19:47:36.856Z,11.37
2018-01-07T19:50:05.133Z,12.20
2018-01-07T20:09:48.696Z,12.43
2018-01-07T20:12:16.328Z,14.23
2018-01-07T20:14:45.350Z,11.67
2018-01-07T20:17:13.303Z,12.07
2018-01-07T20:19:41.185Z,11.97
2018-01-07T20:22:08.897Z,11.60
2018-01-07T20:24:36.665Z,11.30
2018-01-07T20:27:05.563Z,11.90
2018-01-07T20:46:54.099Z,11.20
2018-01-07T20:49:21.737Z,11.40
2018-01-07T20:54:25.263Z,11.10
2018-01-07T20:56:54.095Z,11.90
2018-01-07T20:59:22.358Z,11.37
2018-01-07T21:01:58.392Z,11.70
2018-01-07T21:04:36.033Z,11.00
2018-01-07T21:07:07.685Z,10.70
2018-01-07T21:09:37.220Z,10.90
2018-01-07T21:12:05.363Z,11.77
2018-01-07T21:14:33.011Z,11.70
2018-01-07T21:17:00.666Z,11.83
2018-01-07T21:19:28.312Z,11.80
2018-01-07T21:21:55.976Z,11.90
2018-01-07T21:24:28.683Z,11.10
2018-01-07T21:44:13.536Z,12.63
2018-01-07T21:46:41.268Z,11.60
2018-01-07T21:49:08.921Z,11.63
2018-01-07T21:51:36.585Z,12.07
2018-01-07T21:54:04.249Z,11.63
2018-01-07T22:13:48.026Z,11.30
2018-01-07T22:16:15.714Z,11.50
2018-01-07T22:18:43.339Z,12.43
2018-01-07T22:21:11.009Z,10.87
2018-01-07T22:23:38.669Z,11.57
2018-01-07T22:26:06.366Z,10.77
2018-01-07T22:28:33.980Z,11.17
2018-01-07T22:31:01.617Z,11.90
2018-01-07T22:33:29.961Z,12.73
2018-01-07T22:35:57.595Z,10.30
2018-01-07T22:38:26.181Z,11.40
2018-01-07T22:40:55.841Z,11.17
2018-01-07T22:43:23.443Z,10.97
2018-01-07T22:45:51.139Z,12.47
2018-01-07T22:48:18.919Z,12.37
2018-01-07T22:50:46.506Z,12.30
2018-01-07T22:53:14.192Z,11.60
2018-01-07T22:55:43.069Z,12.97
2018-01-07T22:58:10.710Z,12.50
2018-01-07T23:00:39.277Z,12.13
2018-01-07T23:20:38.525Z,12.80
2018-01-07T23:23:06.825Z,13.43
2018-01-07T23:25:34.558Z,12.87
2018-01-07T23:28:04.198Z,12.70
2018-01-07T23:30:31.832Z,12.57
2018-01-07T23:33:02.236Z,14.20
2018-01-07T23:35:30.218Z,13.50
2018-01-07T23:37:58.064Z,12.87
2018-01-07T23:40:25.914Z,13.07
2018-01-07T23:42:53.729Z,13.97
2018-01-07T23:45:21.586Z,13.90
2018-01-07T23:47:49.324Z,13.50
2018-01-07T23:50:17.077Z,13.07
2018-01-07T23:52:44.665Z,13.27
2018-01-07T23:55:12.439Z,13.27
2018-01-07T23:57:41.137Z,12.57
